Arbúcies





Hora UTC 18:00
Temperatura 1.5 ºC
Humedad 81.6 %
Presión 1030.0 hPa
Pluja 0.1 mm
Velocidad viento 9.3 km/h
Dirección viento SW
Radiación solar 0.0 W/m²

Datos diarios 2022-01-22



Hora UTC (invierno +1h; verano +2h)
Temperatura (ºC) Humedad (%) Presión (hPa) Velocidad viento (km/h) Precipitación (mm) Radiación solar (W/m²)
Hora UTC Aire Humedad Presión Vel. Dir. Vel. Max Dir. Intent. máx 5 min. Rad. Sol.
00:05 -1.2 89.4 1031.0 7.3 SW 11.3 SSW 0.0 0.0
00:10 -1.3 89.7 1031.0 6.8 SSW 9.5 SSW 0.0 0.0
00:15 -1.3 89.6 1031.0 7.2 SSW 10.6 SSW 0.0 0.0
00:20 -1.4 89.5 1030.0 6.5 SSW 8.8 SSW 0.0 0.0
00:25 -1.4 90.3 1031.0 7.5 SSW 10.2 SSW 0.0 0.0
00:30 -1.2 90.5 1031.0 6.0 SSW 9.9 SW 0.0 0.0
00:35 -1.3 89.5 1031.0 6.1 SSW 8.1 SSW 0.0 0.0
00:40 -1.3 90.0 1031.0 8.2 SSW 11.6 SSW 0.0 0.0
00:45 -1.3 90.0 1031.0 9.5 SSW 13.8 SSW 0.0 0.0
00:50 -1.2 90.0 1030.0 10.9 SSW 14.1 SW 0.0 0.0
00:55 -1.1 89.5 1031.0 10.1 SSW 16.9 SSW 0.0 0.0
01:00 -1.1 89.2 1031.0 11.5 SSW 15.2 SW 0.0 0.0
01:05 -1.1 88.9 1031.0 10.6 SSW 15.5 SSW 0.0 0.0
01:10 -1.1 88.8 1031.0 10.0 SSW 14.8 SSW 0.0 0.0
01:15 -1.0 88.1 1030.0 8.6 SSW 13.8 SW 0.0 0.0
01:20 -1.0 88.0 1030.0 10.9 SSW 15.2 SSW 0.0 0.0
01:25 -1.1 87.5 1030.0 8.8 SSW 12.0 SSW 0.0 0.0
01:30 -1.4 88.1 1031.0 7.6 SW 10.2 SW 0.0 0.0
01:35 -1.6 88.5 1031.0 5.5 SW 7.8 SSW 0.0 0.0
01:40 -2.0 88.7 1031.0 2.4 WSW 5.3 W 0.0 0.0
01:45 -2.2 89.6 1031.0 4.2 SW 6.4 WSW 0.0 0.0
01:50 -2.3 90.1 1031.0 3.4 SW 5.6 WSW 0.0 0.0
01:55 -2.4 90.9 1031.0 4.9 SW 8.8 SW 0.0 0.0
02:00 -2.4 91.3 1031.0 4.2 SW 6.4 SW 0.0 0.0
02:05 -2.4 91.9 1031.0 6.4 SW 9.9 SW 0.0 0.0
02:10 -2.0 92.7 1031.0 6.4 SSW 9.5 SSW 0.0 0.0
02:15 -2.0 91.8 1030.0 3.4 WSW 7.4 SW 0.0 0.0
02:20 -2.3 91.8 1031.0 2.4 SSW 6.7 SW 0.0 0.0
02:25 -2.2 92.5 1030.0 6.9 SW 10.9 SW 0.0 0.0
02:30 -2.1 92.3 1031.0 6.0 SW 8.5 SW 0.0 0.0
02:35 -2.4 92.1 1031.0 0.9 ENE 3.5 WNW 0.0 0.0
02:40 -2.4 92.6 1031.0 2.5 SSW 4.9 SSW 0.0 0.0
02:45 -2.4 92.7 1031.0 4.4 SW 7.4 WSW 0.0 0.0
02:50 -2.6 92.6 1031.0 2.9 WSW 6.4 WSW 0.0 0.0
02:55 -2.7 92.6 1031.0 3.6 SW 4.9 SW 0.0 0.0
03:00 -2.8 92.8 1031.0 5.3 SW 8.5 SSW 0.0 0.0
03:05 -2.6 93.6 1031.0 5.6 SW 8.8 SSW 0.0 0.0
03:10 -2.5 93.5 1032.0 5.2 SW 8.5 SW 0.0 0.0
03:15 -2.6 93.2 1031.0 5.3 SW 8.5 SW 0.0 0.0
03:20 -2.7 93.3 1031.0 6.3 SW 8.8 SW 0.0 0.0
03:25 -2.7 93.5 1031.0 5.6 SW 8.5 SW 0.0 0.0
03:30 -2.7 93.7 1031.0 7.9 SW 10.2 SW 0.0 0.0
03:35 -2.6 93.9 1031.0 7.0 SW 9.9 SW 0.0 0.0
03:40 -2.6 93.7 1031.0 7.0 SW 9.5 SW 0.0 0.0
03:45 -2.5 94.1 1031.0 7.4 SW 10.9 SW 0.0 0.0
03:50 -2.5 93.9 1031.0 7.1 SW 8.8 SW 0.0 0.0
03:55 -2.2 94.5 1031.0 8.2 SW 11.6 SW 0.0 0.0
04:00 -2.3 93.7 1030.0 7.4 SW 9.9 SW 0.0 0.0
04:05 -2.3 94.1 1031.0 10.0 SW 12.3 SW 0.0 0.0
04:10 -2.3 93.8 1031.0 8.5 SW 11.6 SW 0.0 0.0
04:15 -2.4 93.7 1031.0 8.6 SW 10.6 SW 0.0 0.0
04:20 -2.3 94.1 1031.0 9.2 SW 11.3 SW 0.0 0.0
04:25 -2.1 94.1 1031.0 9.6 SW 12.0 SW 0.0 0.0
04:30 -2.2 93.8 1031.0 9.3 SW 12.7 SW 0.0 0.0
04:35 -2.2 93.7 1031.0 7.7 SW 9.9 SW 0.0 0.0
04:40 -2.4 93.7 1032.0 7.1 SW 9.2 SSW 0.0 0.0
04:45 -2.5 93.7 1031.0 6.1 SW 7.8 SW 0.0 0.0
04:50 -2.4 94.1 1031.0 6.5 SW 8.1 SW 0.0 0.0
04:55 -2.4 94.0 1031.0 7.1 SSW 9.5 SSW 0.0 0.0
05:00 -2.3 94.2 1031.0 7.4 SW 10.2 SW 0.0 0.0
05:05 -2.4 93.9 1031.0 6.4 SW 9.2 SW 0.0 0.0
05:10 -2.4 94.2 1032.0 7.1 SW 10.2 SW 0.0 0.0
05:15 -2.3 94.2 1031.0 7.3 SW 9.5 SW 0.0 0.0
05:20 -2.4 94.1 1031.0 7.0 SW 8.8 SW 0.0 0.0
05:25 -2.2 94.7 1031.0 7.3 WSW 13.1 W 0.0 0.0
05:30 -1.9 94.8 1031.0 6.9 SW 10.2 WSW 0.0 0.0
05:35 -1.7 94.8 1031.0 7.5 SW 9.5 SW 0.0 0.0
05:40 -1.5 94.5 1032.0 6.6 SW 9.5 SW 0.0 0.0
05:45 -1.3 94.6 1031.0 7.2 SW 9.5 WSW 0.0 0.0
05:50 -1.2 94.0 1031.0 8.3 SW 11.3 SW 0.0 0.0
05:55 -1.4 93.6 1031.0 5.4 WSW 12.7 W 0.0 0.0
06:00 -1.1 94.1 1031.0 6.5 SW 9.9 SW 0.0 0.0
06:05 -0.6 93.5 1031.0 8.8 SW 13.8 SW 0.0 0.0
06:10 -1.1 91.2 1032.0 8.6 SW 12.0 SW 0.0 0.0
06:15 -1.1 92.4 1031.0 9.0 SW 14.1 SW 0.0 0.0
06:20 -1.0 92.0 1031.0 9.1 SW 13.1 SW 0.0 0.0
06:25 -0.6 91.7 1031.0 11.3 SW 18.0 SW 0.0 0.0
06:30 -0.7 90.1 1031.0 8.9 SW 15.5 SW 0.0 0.0
06:35 -1.1 89.9 1031.0 7.4 SW 11.6 WSW 0.0 0.0
06:40 -1.4 90.5 1032.0 7.0 SW 9.5 SW 0.0 0.0
06:45 -1.4 91.5 1031.0 7.8 WSW 12.3 SW 0.0 0.0
06:50 -1.1 91.6 1031.0 9.7 SW 15.2 SW 0.0 0.0
06:55 -1.1 90.9 1031.0 9.6 SW 14.8 WSW 0.0 0.0
07:00 -0.9 90.8 1031.0 9.9 SW 18.0 SW 0.0 0.0
07:05 -0.9 89.7 1031.0 9.1 SW 14.1 SW 0.0 0.0
07:10 -1.2 89.7 1032.0 7.6 SW 12.0 WSW 0.0 0.3
07:15 -1.3 90.8 1031.0 8.0 SW 14.8 WSW 0.0 1.9
07:20 -1.1 91.0 1031.0 7.4 SW 13.4 SW 0.0 3.8
07:25 -0.9 90.8 1031.0 7.2 SW 12.7 SW 0.0 5.8
07:30 -0.6 90.0 1031.0 8.7 SW 15.5 SW 0.0 8.2
07:35 -0.4 88.6 1031.0 9.0 SW 16.2 WSW 0.0 10.8
07:40 -0.1 86.9 1033.0 8.6 SW 14.8 SW 0.0 13.1
07:45 0.0 85.9 1031.0 7.6 SW 14.8 SW 0.0 15.4
07:50 0.1 85.4 1032.0 7.6 SW 15.5 SW 0.0 17.7
07:55 0.2 84.3 1032.0 8.8 SW 13.4 SW 0.0 20.0
08:00 -0.4 84.3 1032.0 8.2 SW 9.9 SW 0.0 21.6
08:05 -0.8 86.6 1031.0 7.3 SW 9.2 SSW 0.0 23.4
08:10 -1.0 88.1 1032.0 7.3 SW 8.8 SW 0.0 25.3
08:15 -1.0 89.5 1031.0 7.1 SW 8.5 SSW 0.0 27.2
08:20 -1.0 90.3 1032.0 6.8 SSW 9.2 SSW 0.0 29.0
08:25 -0.8 90.9 1032.0 6.8 SSW 8.5 SW 0.0 30.6
08:30 -0.7 90.9 1031.0 6.0 SSW 7.8 SW 0.0 32.4
08:35 -0.5 91.3 1031.0 5.5 SSW 7.4 SSW 0.0 34.6
08:40 -0.1 91.3 1032.0 6.8 SW 10.6 SW 0.0 36.8
08:45 0.4 89.0 1031.0 6.1 SSW 9.2 SW 0.0 38.4
08:50 0.4 88.0 1032.0 5.4 SSW 7.8 S 0.0 40.0
08:55 0.6 87.4 1031.0 5.7 SSW 8.1 SSW 0.0 42.3
09:00 0.9 86.4 1032.0 6.1 SW 9.9 SW 0.0 112.4
09:05 1.5 84.4 1032.0 7.0 SSW 9.9 SW 0.0 159.3
09:10 1.6 82.5 1032.0 5.6 SW 7.4 SW 0.0 179.7
09:15 1.9 82.3 1031.0 5.3 SW 9.2 SW 0.0 92.8
09:20 2.5 80.0 1031.0 6.2 SW 10.2 SW 0.1 160.0
09:25 3.3 76.1 1031.0 7.2 SW 10.9 SSW 0.0 127.1
09:30 4.4 69.2 1031.0 7.4 SSW 14.1 SW 0.0 216.7
09:35 5.0 65.4 1031.0 6.6 SSW 10.9 SSW 0.0 299.7
09:40 5.6 63.1 1032.0 3.6 S 7.1 SSW 0.0 322.1
09:45 5.7 62.8 1032.0 2.5 S 4.6 S 0.0 330.5
09:50 5.6 63.1 1031.0 2.0 S 3.2 SSW 0.0 340.8
09:55 5.9 62.7 1031.0 1.2 S 2.5 S 0.0 349.9
10:00 6.2 61.6 1031.0 0.2 ESE 2.1 E 0.0 358.1
10:05 6.3 60.0 1031.0 1.0 ESE 2.5 E 0.0 365.9
10:10 6.8 59.2 1032.0 0.6 E 2.5 SE 0.0 373.4
10:15 7.1 57.8 1031.0 1.8 ESE 3.5 ESE 0.0 380.8
10:20 7.1 58.3 1032.0 2.0 E 4.6 E 0.0 388.9
10:25 7.2 58.7 1032.0 1.4 ESE 3.2 E 0.0 396.1
10:30 7.3 58.2 1031.0 1.4 ENE 4.6 E 0.0 404.0
10:35 7.6 56.7 1032.0 2.0 ENE 4.6 E 0.0 412.1
10:40 7.9 55.4 1032.0 1.8 E 3.9 ENE 0.0 415.9
10:45 8.3 53.9 1031.0 1.1 ESE 2.5 ESE 0.0 424.7
10:50 8.2 54.0 1031.0 0.8 ESE 1.8 SE 0.0 430.8
10:55 8.2 53.8 1031.0 0.9 ESE 3.9 NE 0.0 434.7
11:00 8.3 52.6 1031.0 2.0 SE 4.2 ENE 0.0 442.8
11:05 8.1 53.9 1031.0 2.7 SSE 4.6 SSW 0.0 449.0
11:10 8.0 54.7 1031.0 1.9 SE 2.8 SSE 0.0 455.8
11:15 8.1 54.6 1031.0 1.9 SE 3.2 SE 0.0 457.0
11:20 8.7 52.3 1031.0 0.4 ESE 2.5 E 0.0 459.5
11:25 8.5 52.1 1031.0 1.9 ENE 3.9 E 0.0 463.3
11:30 8.8 49.7 1031.0 1.7 E 3.5 E 0.0 463.7
11:35 9.4 48.0 1031.0 1.7 E 6.4 ESE 0.0 466.4
11:40 9.3 46.0 1031.0 2.4 ESE 6.4 ESE 0.0 470.3
11:45 9.4 47.8 1031.0 4.9 ENE 10.9 ENE 0.0 469.5
11:50 9.2 49.5 1031.0 6.3 ENE 11.3 ENE 0.0 469.3
11:55 9.0 49.9 1030.0 5.7 ENE 10.9 ENE 0.0 466.8
12:00 9.1 50.9 1030.0 6.6 ENE 12.0 ENE 0.0 460.8
12:05 9.1 51.2 1031.0 6.5 ENE 10.6 NNE 0.0 458.8
12:10 9.1 51.6 1030.0 6.1 ENE 11.3 ENE 0.0 457.3
12:15 9.0 51.3 1030.0 7.1 ENE 13.8 ENE 0.0 458.0
12:20 9.1 50.6 1030.0 6.3 ENE 11.3 ENE 0.0 455.2
12:25 9.3 50.6 1030.0 3.4 E 10.6 ENE 0.0 453.0
12:30 9.3 49.6 1030.0 5.4 NE 9.9 ENE 0.0 451.4
12:35 9.5 48.0 1030.0 5.7 ENE 10.9 NE 0.0 450.8
12:40 9.7 46.9 1030.0 4.5 ENE 10.2 ENE 0.0 448.7
12:45 9.7 45.6 1030.0 4.9 ENE 9.2 ENE 0.0 444.9
12:50 9.5 45.0 1030.0 7.0 ENE 12.0 ENE 0.0 442.1
12:55 9.7 44.8 1030.0 7.4 NE 12.3 ENE 0.0 438.8
13:00 9.9 44.3 1030.0 6.2 NE 10.2 ENE 0.0 436.0
13:05 10.1 43.3 1030.0 6.3 ENE 11.6 ENE 0.0 431.4
13:10 10.2 42.8 1029.0 4.2 NE 8.5 ENE 0.0 427.4
13:15 10.4 42.1 1029.0 7.5 NE 12.7 E 0.0 423.7
13:20 10.1 41.3 1029.0 8.7 NE 15.2 NE 0.0 418.6
13:25 10.0 40.8 1029.0 8.7 ENE 13.1 NE 0.0 413.6
13:30 10.1 41.2 1029.0 6.5 NE 13.4 NE 0.0 405.8
13:35 10.3 39.7 1030.0 8.7 ENE 14.1 ENE 0.0 399.7
13:40 10.4 39.2 1029.0 7.9 NE 15.2 ENE 0.0 391.5
13:45 10.3 39.3 1029.0 7.4 NE 13.1 ENE 0.0 382.9
13:50 10.3 39.3 1029.0 7.5 ENE 12.3 ENE 0.0 372.7
13:55 10.2 39.2 1029.0 6.8 ENE 12.0 ENE 0.0 362.2
14:00 10.3 39.6 1029.0 4.4 ENE 12.7 NE 0.0 351.0
14:05 10.2 38.5 1030.0 3.7 ENE 10.6 ENE 0.0 341.6
14:10 10.4 38.6 1029.0 5.4 ENE 11.3 NE 0.0 331.6
14:15 10.2 38.5 1029.0 6.2 ENE 12.3 ENE 0.0 322.7
14:20 10.1 39.4 1029.0 3.9 E 10.6 ENE 0.0 291.0
14:25 10.0 38.8 1029.0 3.1 E 6.4 ENE 0.0 301.7
14:30 10.1 40.0 1029.0 1.3 ENE 4.9 E 0.0 290.1
14:35 10.1 41.8 1030.0 5.1 ENE 11.3 ENE 0.0 280.7
14:40 9.8 43.5 1029.0 4.9 ENE 9.5 ENE 0.0 271.0
14:45 9.7 44.4 1029.0 4.3 ENE 8.5 NE 0.0 260.3
14:50 9.6 47.1 1029.0 3.7 E 9.9 NE 0.0 246.4
14:55 9.6 47.9 1029.0 5.0 ENE 10.2 ENE 0.0 235.9
15:00 9.4 49.7 1029.0 4.5 ENE 10.2 ENE 0.0 224.1
15:05 9.4 50.6 1030.0 3.1 E 7.8 ENE 0.0 211.9
15:10 9.4 50.3 1029.0 3.1 E 6.7 NE 0.0 200.4
15:15 9.3 50.2 1029.0 4.7 ENE 7.8 ENE 0.0 186.5
15:20 9.2 51.0 1030.0 5.0 ENE 9.5 NE 0.0 175.0
15:25 9.1 51.7 1029.0 2.3 ESE 7.4 ENE 0.0 160.9
15:30 9.1 51.3 1029.0 2.8 ESE 7.4 E 0.0 150.7
15:35 9.0 51.6 1030.0 2.9 E 6.0 E 0.0 137.4
15:40 8.6 53.8 1029.0 2.2 S 6.7 SW 0.0 71.3
15:45 7.3 58.1 1029.0 5.5 SSW 7.4 SSW 0.0 30.0
15:50 6.5 61.2 1029.0 7.5 SW 10.9 SW 0.0 28.8
15:55 6.0 63.6 1029.0 7.1 SW 9.2 SW 0.0 27.2
16:00 5.7 65.0 1029.0 7.6 SW 10.2 SSW 0.0 25.1
16:05 5.2 66.9 1030.0 5.9 SW 7.8 SSW 0.0 22.6
16:10 4.9 68.5 1029.0 6.2 SW 8.1 SW 0.0 20.2
16:15 4.8 70.1 1029.0 6.9 SSW 9.2 SSW 0.0 18.5
16:20 4.9 69.6 1030.0 7.5 SSW 10.2 SSW 0.0 16.4
16:25 5.0 68.6 1030.0 6.7 SSW 10.2 S 0.0 14.1
16:30 4.7 69.5 1030.0 7.5 SSW 9.9 SSW 0.0 11.4
16:35 4.2 71.6 1031.0 8.4 SSW 9.9 SSW 0.0 9.0
16:40 3.7 73.4 1030.0 8.8 SW 10.2 SW 0.0 6.7
16:45 3.5 75.0 1030.0 9.5 SSW 11.3 SSW 0.0 5.0
16:50 3.4 74.8 1030.0 7.0 SW 8.8 SSW 0.0 3.0
16:55 3.1 75.4 1030.0 7.9 SW 10.6 SSW 0.0 1.0
17:00 2.9 77.0 1030.0 9.2 SSW 11.6 SSW 0.0 0.3
17:05 2.8 77.6 1031.0 8.8 SSW 12.3 SSW 0.0 0.0
17:10 2.9 77.7 1030.0 7.8 SW 9.9 SSW 0.0 0.0
17:15 2.6 77.5 1030.0 8.5 SW 10.9 SSW 0.0 0.0
17:20 2.4 78.5 1030.0 8.1 SSW 10.9 SSW 0.0 0.0
17:25 2.2 79.1 1030.0 7.3 SW 9.2 SSW 0.0 0.0
17:30 2.1 79.8 1030.0 9.2 SSW 10.9 SSW 0.0 0.0
17:35 1.9 80.2 1031.0 8.4 SW 10.2 SSW 0.0 0.0
17:40 1.8 81.0 1030.0 9.2 SSW 11.6 SSW 0.0 0.0
17:45 1.9 81.0 1031.0 8.8 SW 11.6 SSW 0.0 0.0
17:50 1.7 80.8 1030.0 8.2 SW 11.3 SSW 0.0 0.0
17:55 1.6 81.5 1030.0 9.0 SW 13.1 SW 0.0 0.0
18:00 1.5 81.6 1030.0 9.3 SW 12.0 SW 0.0 0.0
Máxima 10.4 94.8 1033.0 11.5 SSW 18.0 SW 0.1 470.3
Mínima -2.8 38.5 1029.0
Total 0.1